Time;durP1;ratioP1;P1;durP2;ratioP2;P2;SDS_P1;SDS_P2;PMS_P1;PMS_P2;Temp;Humidity;BMP_temperature;BMP_pressure;BME280_temperature;BME280_humidity;BME280_pressure;Samples;Min_cycle;Max_cycle;Signal;HPM_P1;HPM_P2
2023/09/10 00:02:27;;;;;;;8.20;2.17;;;27.60;43.80;;;;;;5007189;28;20037;-74
2023/09/10 00:04:53;;;;;;;5.68;2.03;;;27.60;43.90;;;;;;5004118;28;20049;-74
2023/09/10 00:07:23;;;;;;;3.58;2.38;;;27.50;43.90;;;;;;4985707;28;20042;-74
2023/09/10 00:09:52;;;;;;;3.65;2.63;;;27.50;43.90;;;;;;4973211;28;20788;-74
2023/09/10 00:12:39;;;;;;;3.63;2.08;;;27.60;43.90;;;;;;4994695;28;20035;-74
2023/09/10 00:15:36;;;;;;;4.63;2.10;;;27.60;44.00;;;;;;4961465;28;20140;-74
2023/09/10 00:18:03;;;;;;;2.70;2.15;;;27.60;44.10;;;;;;4970644;28;20038;-74
2023/09/10 00:20:29;;;;;;;3.67;1.70;;;27.60;44.20;;;;;;5021841;28;20064;-75
2023/09/10 00:23:11;;;;;;;1.95;1.33;;;27.50;44.20;;;;;;4934319;28;20051;-74
2023/09/10 00:25:37;;;;;;;9.23;1.87;;;27.50;44.30;;;;;;4982343;28;20042;-75
2023/09/10 00:28:07;;;;;;;2.75;1.67;;;27.60;44.30;;;;;;4964364;28;20042;-75
2023/09/10 00:30:52;;;;;;;2.17;1.40;;;27.60;44.30;;;;;;4956488;28;20153;-74
2023/09/10 00:33:39;;;;;;;3.05;1.48;;;27.60;44.30;;;;;;4983341;28;20538;-74
2023/09/10 00:36:08;;;;;;;2.22;1.63;;;27.50;44.30;;;;;;4981897;28;20448;-74
2023/09/10 00:38:38;;;;;;;1.70;1.58;;;27.60;44.40;;;;;;4973805;28;20493;-75
2023/09/10 00:41:06;;;;;;;3.92;1.55;;;27.70;44.40;;;;;;5025335;28;20135;-74
2023/09/10 00:43:36;;;;;;;1.23;1.13;;;27.60;44.40;;;;;;4984702;28;20482;-75
2023/09/10 00:46:03;;;;;;;2.00;1.30;;;27.60;44.50;;;;;;4970266;28;20043;-74
2023/09/10 00:48:52;;;;;;;2.38;1.45;;;27.60;44.50;;;;;;4998632;28;20101;-74
2023/09/10 00:51:21;;;;;;;2.33;1.45;;;27.60;44.40;;;;;;4960274;28;20903;-74
2023/09/10 00:53:55;;;;;;;3.50;1.38;;;27.50;44.50;;;;;;4969419;28;20035;-74
2023/09/10 00:56:21;;;;;;;2.17;1.55;;;27.60;44.50;;;;;;4984464;28;20039;-75
2023/09/10 00:58:48;;;;;;;2.67;1.90;;;27.50;44.60;;;;;;4972548;28;20038;-75
2023/09/10 01:01:15;;;;;;;3.45;1.35;;;27.40;44.60;;;;;;4985297;28;20127;-75
2023/09/10 01:03:42;;;;;;;3.65;1.90;;;27.50;44.60;;;;;;4967188;28;20069;-75
2023/09/10 01:06:10;;;;;;;2.53;1.58;;;27.50;44.60;;;;;;4938087;29;20040;-75
2023/09/10 01:08:36;;;;;;;4.68;1.52;;;27.40;44.60;;;;;;4930430;29;20416;-74
2023/09/10 01:11:21;;;;;;;2.50;1.63;;;27.50;44.70;;;;;;4930280;29;20058;-75
2023/09/10 01:14:15;;;;;;;5.97;1.70;;;27.50;44.80;;;;;;4939870;28;20515;-75
2023/09/10 01:17:10;;;;;;;1.38;1.27;;;27.50;44.90;;;;;;4937431;29;20032;-75
2023/09/10 01:20:12;;;;;;;2.13;1.48;;;27.50;44.90;;;;;;4925855;28;20044;-75
2023/09/10 01:22:55;;;;;;;3.08;1.85;;;27.50;44.90;;;;;;4898886;28;20565;-75
2023/09/10 01:25:35;;;;;;;1.58;1.30;;;27.60;45.00;;;;;;4913247;28;20499;-76
2023/09/10 01:28:03;;;;;;;4.93;1.70;;;27.40;44.80;;;;;;4929001;29;20043;-76
2023/09/10 01:30:38;;;;;;;2.88;1.45;;;27.50;44.90;;;;;;4930514;29;20177;-76
2023/09/10 01:33:16;;;;;;;3.33;1.35;;;27.50;44.80;;;;;;4945406;28;20054;-76
2023/09/10 01:35:53;;;;;;;4.55;1.70;;;27.40;44.90;;;;;;4947828;28;20101;-76
2023/09/10 01:38:27;;;;;;;1.50;1.40;;;27.40;44.90;;;;;;4984989;28;20106;-76
2023/09/10 01:41:02;;;;;;;5.63;1.42;;;27.60;45.00;;;;;;4952385;28;20061;-76
2023/09/10 01:43:55;;;;;;;2.05;1.33;;;27.40;45.10;;;;;;4978112;28;20026;-76
2023/09/10 01:46:23;;;;;;;1.38;1.27;;;27.60;45.20;;;;;;4967813;28;20108;-76
2023/09/10 01:49:03;;;;;;;3.10;1.65;;;27.60;45.20;;;;;;4968828;28;20085;-76
2023/09/10 01:51:55;;;;;;;3.42;1.55;;;27.60;45.20;;;;;;4968110;28;20152;-76
2023/09/10 01:54:22;;;;;;;4.28;1.65;;;27.50;45.30;;;;;;4977761;28;20101;-76
2023/09/10 01:56:48;;;;;;;2.90;1.58;;;27.40;45.30;;;;;;4971610;28;20050;-76
2023/09/10 01:59:46;;;;;;;2.13;1.33;;;27.40;45.30;;;;;;4975123;28;20091;-76
2023/09/10 02:02:17;;;;;;;2.58;1.60;;;27.40;45.30;;;;;;5005071;28;20057;-76
2023/09/10 02:07:39;;;;;;;4.20;1.70;;;27.40;45.30;;;;;;4958152;28;20089;-76
2023/09/10 02:10:08;;;;;;;2.80;1.58;;;27.40;45.40;;;;;;4984635;28;20055;-76
2023/09/10 02:12:34;;;;;;;4.18;1.52;;;27.50;45.40;;;;;;4965918;28;20138;-76
2023/09/10 02:15:03;;;;;;;2.78;1.50;;;27.40;45.40;;;;;;4973084;28;20038;-76
2023/09/10 02:17:37;;;;;;;4.25;1.58;;;27.40;45.40;;;;;;4993229;28;20162;-76
2023/09/10 02:20:11;;;;;;;3.08;1.75;;;27.40;45.60;;;;;;4981368;28;20568;-76
2023/09/10 02:22:39;;;;;;;3.35;1.67;;;27.40;45.60;;;;;;4972248;28;20042;-77
2023/09/10 02:25:25;;;;;;;2.10;1.27;;;27.30;45.70;;;;;;5000865;28;20056;-76
2023/09/10 02:28:24;;;;;;;2.90;1.55;;;27.30;45.80;;;;;;5000695;28;20042;-76
2023/09/10 02:30:51;;;;;;;2.90;1.52;;;27.30;45.80;;;;;;4986827;28;20058;-76
2023/09/10 02:33:29;;;;;;;;;;;;;;;;;;;;;
2023/09/10 02:36:14;;;;;;;10.43;1.90;;;27.40;45.80;;;;;;4959897;28;20039;-76
2023/09/10 02:38:40;;;;;;;3.05;1.80;;;27.40;45.90;;;;;;4970880;28;20113;-76
2023/09/10 02:41:07;;;;;;;3.22;1.30;;;27.30;45.90;;;;;;4970371;28;20147;-76
2023/09/10 02:43:33;;;;;;;2.95;1.33;;;27.30;46.00;;;;;;4980148;28;20393;-76
2023/09/10 02:46:05;;;;;;;1.75;1.48;;;27.40;46.00;;;;;;4996309;28;20125;-76
2023/09/10 02:48:45;;;;;;;1.92;1.50;;;27.40;46.00;;;;;;4996306;28;20130;-76
2023/09/10 02:51:14;;;;;;;8.77;1.45;;;27.30;46.00;;;;;;5008017;28;20053;-76
2023/09/10 02:54:04;;;;;;;1.85;1.58;;;27.50;46.00;;;;;;4963867;28;20030;-76
2023/09/10 02:56:46;;;;;;;;;;;;;;;;;;;;;
2023/09/10 02:59:25;;;;;;;3.38;1.60;;;27.40;46.00;;;;;;4985647;28;20046;-76
2023/09/10 03:01:52;;;;;;;1.95;1.23;;;27.40;46.00;;;;;;4973246;28;20034;-76
2023/09/10 03:04:20;;;;;;;2.03;1.17;;;27.40;46.00;;;;;;4994499;28;20055;-76
2023/09/10 03:06:51;;;;;;;4.60;1.10;;;27.30;46.00;;;;;;5007036;28;20108;-76
2023/09/10 03:09:18;;;;;;;2.03;1.60;;;27.30;46.00;;;;;;4991322;28;20473;-76
2023/09/10 03:12:13;;;;;;;2.20;1.38;;;27.30;46.00;;;;;;4991868;28;20764;-76
2023/09/10 03:14:42;;;;;;;3.22;1.45;;;27.30;46.00;;;;;;4994120;28;20102;-76
2023/09/10 03:17:10;;;;;;;2.17;1.23;;;27.40;46.00;;;;;;5009668;28;20034;-76
2023/09/10 03:19:37;;;;;;;2.22;1.50;;;27.30;46.10;;;;;;5007843;28;20091;-76
2023/09/10 03:22:04;;;;;;;2.72;1.60;;;27.20;46.20;;;;;;5004104;28;20451;-77
2023/09/10 03:24:34;;;;;;;2.10;1.40;;;27.30;46.30;;;;;;4987298;28;20500;-76
2023/09/10 03:27:10;;;;;;;5.35;1.40;;;27.20;46.30;;;;;;4977268;28;20039;-76
2023/09/10 03:29:40;;;;;;;3.55;1.58;;;27.30;46.30;;;;;;4974061;28;20479;-76
2023/09/10 03:32:59;;;;;;;2.55;1.65;;;27.30;46.30;;;;;;4970563;28;20071;-76
2023/09/10 03:35:27;;;;;;;3.08;1.30;;;27.30;46.30;;;;;;4994994;28;20049;-76
2023/09/10 03:38:48;;;;;;;2.25;1.45;;;27.20;46.40;;;;;;4984450;28;20034;-76
2023/09/10 03:41:15;;;;;;;2.28;1.52;;;27.50;46.40;;;;;;4973789;28;20050;-76
2023/09/10 03:44:16;;;;;;;6.63;1.52;;;27.30;46.40;;;;;;4962371;28;20050;-76
2023/09/10 03:47:08;;;;;;;8.38;1.80;;;27.30;46.50;;;;;;4947557;28;20138;-76
2023/09/10 03:49:35;;;;;;;3.22;1.50;;;27.30;46.50;;;;;;4941623;28;20054;-76
2023/09/10 03:52:14;;;;;;;5.80;1.45;;;27.30;46.50;;;;;;4942210;28;20061;-76
2023/09/10 03:54:40;;;;;;;4.63;1.92;;;27.20;46.50;;;;;;4938003;28;20055;-76
2023/09/10 03:57:07;;;;;;;3.22;1.13;;;27.30;46.50;;;;;;4969989;28;20065;-76
2023/09/10 03:59:36;;;;;;;2.25;1.40;;;27.40;46.40;;;;;;4946065;28;20043;-76
2023/09/10 04:02:03;;;;;;;4.53;1.35;;;27.20;46.40;;;;;;4950756;28;20051;-76
2023/09/10 04:04:41;;;;;;;5.32;1.58;;;27.30;46.40;;;;;;4941510;28;20119;-76
2023/09/10 04:07:07;;;;;;;4.13;1.70;;;27.20;46.40;;;;;;4937887;28;20038;-76
2023/09/10 04:09:35;;;;;;;2.40;1.40;;;27.20;46.40;;;;;;4970065;28;20129;-76
2023/09/10 04:12:02;;;;;;;3.58;1.38;;;27.20;46.40;;;;;;4953339;28;20544;-76
2023/09/10 04:14:30;;;;;;;2.95;1.52;;;27.30;46.40;;;;;;4972007;28;20092;-76
2023/09/10 04:16:57;;;;;;;1.88;1.48;;;27.20;46.40;;;;;;5010359;28;20080;-76
2023/09/10 04:19:45;;;;;;;3.17;1.52;;;27.10;46.60;;;;;;5012764;28;20038;-76
2023/09/10 04:22:11;;;;;;;2.33;1.42;;;27.20;46.60;;;;;;4987462;28;20038;-77
2023/09/10 04:24:41;;;;;;;7.57;2.15;;;27.20;46.60;;;;;;4988799;28;20042;-77
2023/09/10 04:27:25;;;;;;;1.48;1.38;;;27.20;46.70;;;;;;4990521;28;20035;-77
2023/09/10 04:29:54;;;;;;;1.85;1.45;;;27.20;46.70;;;;;;4990773;28;20042;-76
2023/09/10 04:32:20;;;;;;;2.65;1.30;;;27.10;46.70;;;;;;4986743;28;20039;-76
2023/09/10 04:34:46;;;;;;;4.28;1.55;;;27.20;46.70;;;;;;4986014;28;20054;-77
2023/09/10 04:37:43;;;;;;;3.85;1.27;;;27.30;46.80;;;;;;4988287;28;20039;-77
2023/09/10 04:43:29;;;;;;;4.90;1.40;;;27.30;46.80;;;;;;5048744;28;20124;-77
2023/09/10 04:46:09;;;;;;;4.28;1.30;;;27.30;46.80;;;;;;5064537;28;20047;-75
2023/09/10 04:48:36;;;;;;;5.13;1.50;;;27.20;46.90;;;;;;5069782;28;20028;-76
2023/09/10 04:51:03;;;;;;;1.60;1.50;;;27.20;46.90;;;;;;5051057;28;20079;-75
2023/09/10 04:53:50;;;;;;;2.45;1.10;;;27.20;46.80;;;;;;5060338;28;20044;-78
2023/09/10 04:56:24;;;;;;;1.65;0.90;;;27.30;46.80;;;;;;4966939;28;20047;-78
2023/09/10 04:59:00;;;;;;;3.97;1.48;;;27.30;47.00;;;;;;4947957;28;20069;-78
2023/09/10 05:01:26;;;;;;;3.25;1.30;;;27.30;47.00;;;;;;4951981;28;20054;-78
2023/09/10 05:03:56;;;;;;;1.42;1.08;;;27.20;47.00;;;;;;4940007;29;20062;-78
2023/09/10 05:06:28;;;;;;;1.67;1.10;;;27.10;47.00;;;;;;4920471;29;20817;-77
2023/09/10 05:09:15;;;;;;;3.42;1.25;;;27.10;47.00;;;;;;4959505;28;20109;-79
2023/09/10 05:11:42;;;;;;;6.97;1.30;;;27.10;47.10;;;;;;4952245;28;20046;-78
2023/09/10 05:14:21;;;;;;;6.35;1.60;;;27.10;47.00;;;;;;4933012;29;20048;-77
2023/09/10 05:16:51;;;;;;;4.25;1.10;;;27.20;47.00;;;;;;4940127;29;20043;-78
2023/09/10 05:19:47;;;;;;;;;;;;;;;;;;;;;
2023/09/10 05:22:25;;;;;;;1.88;1.60;;;27.20;47.10;;;;;;4990117;28;20046;-78
2023/09/10 05:24:51;;;;;;;3.80;1.13;;;27.10;47.10;;;;;;4991020;28;20030;-77
2023/09/10 05:27:26;;;;;;;1.73;1.60;;;27.10;47.10;;;;;;4990941;28;20050;-78
2023/09/10 05:30:06;;;;;;;2.22;1.23;;;27.10;47.00;;;;;;4974673;28;20123;-78
2023/09/10 05:32:35;;;;;;;2.65;1.35;;;27.20;47.10;;;;;;4982151;28;20045;-78
2023/09/10 05:35:02;;;;;;;1.50;0.75;;;27.00;47.10;;;;;;5030881;28;20036;-78
2023/09/10 05:37:49;;;;;;;;;;;;;;;;;;;;;
2023/09/10 05:40:39;;;;;;;1.77;1.30;;;27.00;47.10;;;;;;5034973;28;20033;-77
2023/09/10 05:43:29;;;;;;;3.85;1.30;;;27.10;47.10;;;;;;5050906;28;20488;-77
2023/09/10 05:46:26;;;;;;;1.27;1.00;;;27.00;47.20;;;;;;5051038;28;20404;-78
2023/09/10 05:49:14;;;;;;;0.82;0.60;;;27.00;47.30;;;;;;5021799;28;20060;-78
2023/09/10 05:51:44;;;;;;;4.72;1.30;;;27.00;47.40;;;;;;5019932;28;20123;-74
2023/09/10 05:54:20;;;;;;;3.70;1.48;;;27.00;47.30;;;;;;5030077;28;20052;-79
2023/09/10 05:56:47;;;;;;;0.65;0.65;;;27.10;47.60;;;;;;4999933;28;20071;-74
2023/09/10 05:59:14;;;;;;;0.40;0.40;;;27.30;49.10;;;;;;4951878;28;20043;-73
2023/09/10 06:01:40;;;;;;;1.98;0.85;;;27.30;48.60;;;;;;4951292;28;20458;-75
2023/09/10 06:04:14;;;;;;;2.65;1.23;;;27.30;47.50;;;;;;4951522;28;20450;-74
2023/09/10 06:06:43;;;;;;;1.67;1.30;;;27.30;46.30;;;;;;5052247;28;20328;-76
2023/09/10 06:09:12;;;;;;;1.42;1.30;;;27.40;45.70;;;;;;4952414;28;20053;-77
2023/09/10 06:12:07;;;;;;;0.95;0.77;;;27.40;45.20;;;;;;4966367;28;20092;-76
2023/09/10 06:14:54;;;;;;;7.72;4.65;;;27.40;44.10;;;;;;5048578;28;20037;-77
2023/09/10 06:17:45;;;;;;;2.75;1.77;;;27.50;45.70;;;;;;5066772;28;20039;-76
2023/09/10 06:20:37;;;;;;;1.50;1.40;;;27.50;42.90;;;;;;5039313;28;20079;-77
2023/09/10 06:23:34;;;;;;;8.98;1.70;;;27.50;42.00;;;;;;5021313;28;20056;-74
2023/09/10 06:26:01;;;;;;;3.10;2.05;;;27.50;41.30;;;;;;5033314;28;20076;-74
2023/09/10 06:28:52;;;;;;;2.80;1.77;;;27.50;41.80;;;;;;5068542;28;20114;-70
2023/09/10 06:31:18;;;;;;;2.03;1.33;;;27.60;40.90;;;;;;5051890;28;20044;-72
2023/09/10 06:33:44;;;;;;;4.55;1.92;;;27.50;40.50;;;;;;5050675;28;20029;-71
2023/09/10 06:36:11;;;;;;;3.47;1.80;;;27.50;40.10;;;;;;5009819;28;20042;-70
2023/09/10 06:38:37;;;;;;;4.07;1.60;;;27.50;39.90;;;;;;5028000;28;20048;-70
2023/09/10 06:41:04;;;;;;;4.82;1.90;;;27.50;39.70;;;;;;5012173;28;20053;-69
2023/09/10 06:43:31;;;;;;;2.75;2.05;;;27.60;39.40;;;;;;5011868;28;20133;-70
2023/09/10 06:46:10;;;;;;;2.78;2.03;;;27.50;39.20;;;;;;4947005;28;20519;-71
2023/09/10 06:48:37;;;;;;;1.75;1.33;;;27.50;39.00;;;;;;4948120;28;20049;-69
2023/09/10 06:51:03;;;;;;;1.58;1.13;;;27.60;38.60;;;;;;4947773;28;20043;-69
2023/09/10 06:53:30;;;;;;;3.50;1.30;;;27.60;38.20;;;;;;4930536;28;20051;-69
2023/09/10 06:55:57;;;;;;;4.50;1.50;;;27.60;38.20;;;;;;4928595;28;20052;-69
2023/09/10 06:58:23;;;;;;;1.85;1.55;;;27.60;38.00;;;;;;4912882;28;20055;-69
2023/09/10 07:00:49;;;;;;;3.35;1.67;;;27.60;37.90;;;;;;4929712;28;20090;-70
2023/09/10 07:03:16;;;;;;;3.70;1.38;;;27.60;38.40;;;;;;4947766;28;20036;-70
2023/09/10 07:05:52;;;;;;;1.40;1.30;;;27.50;38.20;;;;;;4947654;28;20044;-70
2023/09/10 07:08:18;;;;;;;4.80;1.67;;;27.70;38.00;;;;;;4984911;28;20129;-70
2023/09/10 07:10:44;;;;;;;4.97;1.40;;;27.60;38.00;;;;;;4987240;28;20045;-69
2023/09/10 07:13:11;;;;;;;4.28;1.33;;;27.60;37.90;;;;;;4988782;28;20457;-70
2023/09/10 07:15:37;;;;;;;5.53;1.70;;;27.60;37.90;;;;;;4995355;28;20034;-70
2023/09/10 07:18:04;;;;;;;1.92;1.40;;;27.60;37.70;;;;;;5023828;28;20144;-70
2023/09/10 07:20:30;;;;;;;4.15;1.20;;;27.80;37.60;;;;;;4992253;28;20063;-69
2023/09/10 07:22:56;;;;;;;2.10;1.30;;;27.70;37.40;;;;;;4990193;28;20057;-69
2023/09/10 07:25:23;;;;;;;2.10;1.50;;;27.70;37.40;;;;;;4992326;28;20714;-69
2023/09/10 07:27:49;;;;;;;1.35;1.20;;;27.60;37.30;;;;;;4989737;28;20080;-69
2023/09/10 07:30:15;;;;;;;2.63;1.40;;;27.60;37.30;;;;;;4964435;28;20085;-70
2023/09/10 07:32:41;;;;;;;2.50;1.65;;;27.70;37.20;;;;;;4972508;28;20494;-70
2023/09/10 07:35:11;;;;;;;2.58;1.20;;;27.70;37.20;;;;;;4989764;28;20027;-70
2023/09/10 07:37:37;;;;;;;2.95;1.65;;;27.70;37.30;;;;;;4984875;28;20050;-70
2023/09/10 07:40:04;;;;;;;2.20;1.67;;;27.60;37.20;;;;;;5040530;28;20506;-69
2023/09/10 07:42:30;;;;;;;3.40;1.50;;;27.50;37.30;;;;;;4985080;28;20080;-69
2023/09/10 07:44:56;;;;;;;4.53;1.50;;;27.60;37.50;;;;;;4979311;28;20038;-69
2023/09/10 07:47:22;;;;;;;2.78;1.38;;;27.50;37.60;;;;;;4986134;28;20516;-69
2023/09/10 07:49:51;;;;;;;2.03;1.52;;;27.60;37.50;;;;;;4989561;28;20043;-70
2023/09/10 07:52:18;;;;;;;2.08;1.67;;;27.60;37.40;;;;;;4988165;28;20049;-70
2023/09/10 07:54:44;;;;;;;1.83;1.20;;;27.60;37.40;;;;;;4989360;28;20049;-70
2023/09/10 07:57:20;;;;;;;1.92;1.02;;;27.50;37.60;;;;;;4984528;28;20051;-70
2023/09/10 07:59:54;;;;;;;4.07;1.70;;;27.50;37.60;;;;;;4953891;28;20031;-69
2023/09/10 08:02:21;;;;;;;5.03;2.35;;;27.50;37.40;;;;;;4976061;28;20057;-69
2023/09/10 08:04:48;;;;;;;2.42;1.50;;;27.50;37.40;;;;;;4986036;28;20030;-69
2023/09/10 08:07:15;;;;;;;2.42;1.48;;;27.60;37.40;;;;;;4972758;28;20038;-70
2023/09/10 08:09:41;;;;;;;3.53;1.45;;;27.50;37.40;;;;;;4971321;28;20494;-69
2023/09/10 08:12:07;;;;;;;2.35;1.40;;;27.50;37.50;;;;;;4988075;28;20031;-70
2023/09/10 08:14:35;;;;;;;3.63;2.15;;;27.40;37.70;;;;;;4971008;28;20129;-69
2023/09/10 08:17:02;;;;;;;2.25;1.73;;;27.40;37.70;;;;;;4972026;28;20035;-69
2023/09/10 08:19:28;;;;;;;2.42;1.27;;;27.30;37.90;;;;;;4970659;28;20041;-69
2023/09/10 08:21:54;;;;;;;3.50;1.75;;;27.40;38.10;;;;;;4984100;28;20038;-69
2023/09/10 08:24:23;;;;;;;4.57;1.48;;;27.50;38.30;;;;;;4976875;28;20060;-70
2023/09/10 08:26:51;;;;;;;4.95;1.70;;;27.40;38.50;;;;;;4971554;28;20031;-69
2023/09/10 08:29:17;;;;;;;6.40;1.83;;;27.50;38.60;;;;;;5002506;28;20467;-69
2023/09/10 08:31:47;;;;;;;2.53;1.35;;;27.30;38.70;;;;;;4991366;28;20042;-69
2023/09/10 08:34:13;;;;;;;2.38;1.63;;;27.50;38.80;;;;;;4991257;28;20035;-69
2023/09/10 08:36:39;;;;;;;5.47;1.70;;;27.50;39.00;;;;;;4991056;28;20039;-69
2023/09/10 08:39:06;;;;;;;2.15;1.35;;;27.50;39.10;;;;;;4986389;28;20110;-70
2023/09/10 08:41:53;;;;;;;1.45;1.35;;;27.40;39.30;;;;;;4990948;28;20038;-70
2023/09/10 08:44:41;;;;;;;3.75;1.27;;;27.50;39.40;;;;;;4981713;28;20490;-69
2023/09/10 08:47:08;;;;;;;4.07;1.40;;;27.40;39.40;;;;;;4990851;28;20049;-70
2023/09/10 08:49:40;;;;;;;3.03;1.90;;;27.50;39.60;;;;;;4989832;28;20034;-69
2023/09/10 08:52:07;;;;;;;3.95;1.27;;;27.30;39.60;;;;;;4991130;28;20107;-69
2023/09/10 08:54:33;;;;;;;2.58;1.50;;;27.40;39.70;;;;;;5054112;28;20483;-70
2023/09/10 08:57:01;;;;;;;3.88;2.00;;;27.30;39.70;;;;;;5091754;28;20036;-69
2023/09/10 08:59:29;;;;;;;1.80;1.55;;;27.40;39.80;;;;;;5093237;28;20049;-69
2023/09/10 09:01:56;;;;;;;1.95;1.30;;;27.40;39.90;;;;;;5093084;28;20067;-70
2023/09/10 09:04:23;;;;;;;1.40;1.30;;;27.20;40.00;;;;;;5091834;28;20036;-69
2023/09/10 09:06:53;;;;;;;3.00;1.50;;;27.30;40.10;;;;;;5092020;28;20028;-69
2023/09/10 09:09:22;;;;;;;4.45;1.58;;;27.30;40.10;;;;;;5070627;28;20030;-70
2023/09/10 09:11:51;;;;;;;3.10;1.67;;;27.40;40.20;;;;;;4990665;28;20529;-69
2023/09/10 09:14:18;;;;;;;6.20;1.88;;;27.20;40.30;;;;;;4989304;28;20043;-70
2023/09/10 09:16:45;;;;;;;2.33;1.23;;;27.40;40.40;;;;;;4990574;28;20737;-69
2023/09/10 09:19:13;;;;;;;2.92;1.75;;;27.30;40.50;;;;;;4989206;28;20034;-69
2023/09/10 09:21:50;;;;;;;5.32;1.75;;;27.50;40.50;;;;;;4990662;28;20034;-69
2023/09/10 09:24:17;;;;;;;6.78;1.73;;;27.20;40.70;;;;;;4990206;28;20073;-70
2023/09/10 09:26:44;;;;;;;2.65;1.52;;;27.30;40.70;;;;;;4990349;28;20066;-69
2023/09/10 09:29:11;;;;;;;1.30;1.20;;;27.30;40.70;;;;;;4990294;28;20066;-69
2023/09/10 09:31:50;;;;;;;1.48;0.93;;;27.30;40.90;;;;;;4990664;28;20038;-70
2023/09/10 09:34:17;;;;;;;4.47;1.75;;;27.40;40.90;;;;;;4990194;28;20390;-70
2023/09/10 09:36:55;;;;;;;5.88;1.55;;;27.30;41.00;;;;;;4990337;28;20030;-69
2023/09/10 09:39:22;;;;;;;5.28;1.70;;;27.20;41.00;;;;;;4990073;28;20053;-70
2023/09/10 09:41:54;;;;;;;5.60;1.40;;;27.40;41.10;;;;;;4990129;28;20034;-70
2023/09/10 09:44:20;;;;;;;4.03;1.20;;;27.30;41.10;;;;;;4990542;28;20046;-70
2023/09/10 09:46:50;;;;;;;7.25;1.50;;;27.30;41.20;;;;;;4990014;28;20268;-69
2023/09/10 09:49:25;;;;;;;4.22;1.83;;;27.30;41.20;;;;;;4990715;28;20034;-70
2023/09/10 09:51:52;;;;;;;5.57;1.33;;;27.30;41.30;;;;;;4990421;28;20038;-69
2023/09/10 09:54:19;;;;;;;2.92;1.67;;;27.40;41.30;;;;;;4988864;28;20114;-67
2023/09/10 09:57:02;;;;;;;4.03;1.75;;;27.40;41.30;;;;;;4989749;28;20042;-69
2023/09/10 09:59:37;;;;;;;3.60;1.92;;;27.30;41.30;;;;;;4990152;28;20109;-70
2023/09/10 10:02:04;;;;;;;3.35;1.70;;;27.20;41.40;;;;;;4989937;28;20038;-70
2023/09/10 10:04:34;;;;;;;2.65;1.40;;;27.20;41.30;;;;;;4989730;28;20133;-69
2023/09/10 10:07:01;;;;;;;2.47;1.30;;;27.20;41.40;;;;;;4989683;28;20042;-69
2023/09/10 10:09:38;;;;;;;3.15;1.58;;;27.20;41.40;;;;;;4989613;28;20042;-70
2023/09/10 10:12:06;;;;;;;2.17;1.35;;;27.20;41.50;;;;;;4989957;28;20035;-69
2023/09/10 10:14:34;;;;;;;3.17;2.13;;;27.20;41.50;;;;;;4989912;28;20023;-69
2023/09/10 10:17:31;;;;;;;2.58;1.70;;;27.20;41.60;;;;;;4989585;28;20045;-69
2023/09/10 10:20:27;;;;;;;1.58;1.20;;;27.30;41.70;;;;;;4989702;28;20089;-69
2023/09/10 10:22:53;;;;;;;1.73;1.30;;;27.20;41.80;;;;;;4983636;28;20039;-69
2023/09/10 10:25:23;;;;;;;7.40;1.95;;;27.10;41.90;;;;;;4989469;28;20039;-70
2023/09/10 10:27:51;;;;;;;5.00;1.55;;;27.20;41.90;;;;;;5002545;28;20061;-70
2023/09/10 10:30:17;;;;;;;4.05;1.52;;;27.40;42.00;;;;;;4989298;28;20068;-69
2023/09/10 10:32:46;;;;;;;6.10;1.92;;;27.20;42.10;;;;;;4989432;28;20103;-69
2023/09/10 10:35:13;;;;;;;3.10;1.45;;;27.40;42.10;;;;;;4989509;28;20034;-69
2023/09/10 10:37:57;;;;;;;1.70;1.30;;;27.20;42.10;;;;;;4990102;28;20069;-69
2023/09/10 10:40:37;;;;;;;3.03;1.70;;;27.20;42.10;;;;;;4989491;28;20072;-70
2023/09/10 10:43:22;;;;;;;2.88;1.30;;;27.20;42.10;;;;;;4989621;28;20667;-68
2023/09/10 10:45:50;;;;;;;2.63;1.45;;;27.20;42.20;;;;;;5048197;28;20063;-68
2023/09/10 10:48:24;;;;;;;1.98;1.45;;;27.30;42.50;;;;;;5088938;28;20055;-68
2023/09/10 10:50:53;;;;;;;10.57;1.92;;;27.40;42.90;;;;;;5091337;28;20043;-69
2023/09/10 10:53:24;;;;;;;7.43;1.70;;;27.30;43.60;;;;;;5091540;28;20036;-68
2023/09/10 10:55:56;;;;;;;5.55;2.10;;;27.30;46.10;;;;;;5090032;28;20043;-69
2023/09/10 10:58:23;;;;;;;2.95;1.60;;;27.50;45.00;;;;;;5001296;28;20108;-69
2023/09/10 11:00:54;;;;;;;9.15;1.90;;;27.30;45.70;;;;;;4988918;28;20092;-70
2023/09/10 11:03:21;;;;;;;8.18;2.15;;;27.50;44.20;;;;;;4989107;28;20118;-71
2023/09/10 11:05:54;;;;;;;2.58;1.55;;;27.30;43.40;;;;;;4989571;28;20019;-72
2023/09/10 11:08:27;;;;;;;2.28;1.30;;;27.40;43.70;;;;;;4988865;28;20088;-73
2023/09/10 11:10:53;;;;;;;4.57;1.88;;;27.40;44.20;;;;;;4988829;28;20034;-73
2023/09/10 11:13:22;;;;;;;7.57;2.45;;;27.60;43.90;;;;;;4988742;28;20030;-70
2023/09/10 11:16:06;;;;;;;7.05;2.28;;;27.60;43.30;;;;;;4988713;28;20083;-70
2023/09/10 11:18:36;;;;;;;3.40;1.83;;;27.60;43.80;;;;;;4989822;28;20038;-70
2023/09/10 11:21:02;;;;;;;3.75;1.67;;;27.60;43.90;;;;;;4987104;28;20096;-69
2023/09/10 11:23:34;;;;;;;4.55;1.80;;;27.70;45.20;;;;;;4988650;28;20070;-69
2023/09/10 11:26:12;;;;;;;5.68;1.83;;;27.70;43.80;;;;;;4988601;28;20038;-69
2023/09/10 11:28:40;;;;;;;2.78;1.77;;;27.90;45.00;;;;;;4988734;28;20023;-71
2023/09/10 11:34:23;;;;;;;7.07;5.10;;;27.80;44.40;;;;;;4969273;28;20029;-68
2023/09/10 11:37:04;;;;;;;3.60;1.95;;;27.90;45.50;;;;;;4967996;28;20043;-72
2023/09/10 11:39:43;;;;;;;10.02;2.45;;;28.00;45.10;;;;;;4969369;28;20066;-72
2023/09/10 11:42:09;;;;;;;2.42;1.80;;;28.10;47.50;;;;;;4983660;28;20038;-71
2023/09/10 11:44:36;;;;;;;4.53;2.10;;;28.10;45.30;;;;;;4987759;28;20042;-72
2023/09/10 11:47:02;;;;;;;4.10;1.85;;;28.10;45.00;;;;;;5021540;28;20062;-72
2023/09/10 11:49:28;;;;;;;6.13;1.88;;;28.00;44.80;;;;;;5019920;28;20441;-71
2023/09/10 11:51:56;;;;;;;3.78;2.45;;;28.10;44.50;;;;;;5090778;28;20081;-72
2023/09/10 11:54:23;;;;;;;10.73;2.00;;;28.10;44.30;;;;;;5046767;28;20041;-72
2023/09/10 11:56:56;;;;;;;3.80;1.70;;;28.10;44.30;;;;;;4988240;28;20046;-70
2023/09/10 11:59:29;;;;;;;2.50;1.65;;;28.10;44.20;;;;;;4989988;28;20096;-70
2023/09/10 12:01:58;;;;;;;7.85;1.75;;;28.10;44.70;;;;;;5013408;28;20095;-73
2023/09/10 12:04:34;;;;;;;4.95;1.75;;;28.10;44.60;;;;;;5132551;27;20051;-73
2023/09/10 12:07:01;;;;;;;3.95;2.13;;;28.20;44.80;;;;;;5132301;27;20209;-74
2023/09/10 12:09:31;;;;;;;5.10;1.85;;;28.10;44.80;;;;;;5132313;27;20583;-72
2023/09/10 12:12:05;;;;;;;7.20;1.83;;;28.10;44.70;;;;;;5132527;27;20477;-71
2023/09/10 12:14:32;;;;;;;5.28;2.35;;;28.20;47.10;;;;;;5132448;27;20439;-71
2023/09/10 12:16:58;;;;;;;2.47;1.60;;;28.20;45.60;;;;;;5040839;27;20048;-72
2023/09/10 12:19:25;;;;;;;4.65;1.77;;;28.20;45.80;;;;;;5031022;27;20120;-72
2023/09/10 12:21:52;;;;;;;3.03;1.60;;;28.30;45.70;;;;;;5027771;28;20060;-73
2023/09/10 12:24:18;;;;;;;3.88;2.08;;;28.40;45.80;;;;;;5027782;28;20474;-72
2023/09/10 12:26:45;;;;;;;5.82;1.50;;;28.30;45.60;;;;;;5011277;28;20046;-72
2023/09/10 12:29:14;;;;;;;3.55;1.67;;;28.30;45.90;;;;;;5027799;28;20034;-73
2023/09/10 12:31:58;;;;;;;1.95;1.58;;;28.30;45.70;;;;;;5023658;28;20060;-76
2023/09/10 12:34:25;;;;;;;5.40;2.03;;;28.30;45.10;;;;;;4989723;28;20064;-72
2023/09/10 12:36:52;;;;;;;2.85;1.73;;;28.30;45.20;;;;;;5028381;28;20026;-73
2023/09/10 12:39:27;;;;;;;1.83;1.67;;;28.10;45.20;;;;;;5011556;28;20042;-72
2023/09/10 12:42:02;;;;;;;3.45;1.73;;;28.30;45.00;;;;;;5091725;28;20039;-75
2023/09/10 12:44:59;;;;;;;2.63;1.60;;;28.30;45.00;;;;;;5062850;28;20390;-72
2023/09/10 12:47:25;;;;;;;3.50;1.42;;;28.30;44.90;;;;;;4990646;28;20073;-73
2023/09/10 12:49:51;;;;;;;3.63;2.03;;;28.30;44.90;;;;;;5019839;28;20032;-74
2023/09/10 12:52:18;;;;;;;2.25;1.55;;;28.30;45.00;;;;;;5093192;28;20028;-76
2023/09/10 12:54:44;;;;;;;2.10;1.50;;;28.30;44.80;;;;;;4996509;28;20044;-72
2023/09/10 12:57:11;;;;;;;8.15;1.77;;;28.20;45.30;;;;;;5009784;28;20137;-73
2023/09/10 12:59:38;;;;;;;8.70;2.08;;;28.30;45.50;;;;;;4991428;28;20114;-73
2023/09/10 13:02:04;;;;;;;3.28;1.95;;;28.20;45.50;;;;;;4993833;28;20510;-77
2023/09/10 13:04:30;;;;;;;4.35;1.83;;;28.30;45.60;;;;;;4988465;28;20565;-75
2023/09/10 13:06:57;;;;;;;3.95;2.17;;;28.30;45.80;;;;;;4987918;28;20030;-75
2023/09/10 13:09:23;;;;;;;17.75;2.53;;;28.10;46.90;;;;;;4986909;28;20034;-76
2023/09/10 13:11:53;;;;;;;4.28;1.67;;;28.20;47.70;;;;;;4972164;28;20427;-79
2023/09/10 13:14:19;;;;;;;6.55;2.33;;;28.20;47.70;;;;;;4987809;28;20546;-75
2023/09/10 13:17:18;;;;;;;5.32;2.17;;;28.20;47.60;;;;;;4929870;28;20044;-73
2023/09/10 13:19:44;;;;;;;5.25;1.60;;;28.20;47.50;;;;;;4930353;28;20135;-73
2023/09/10 13:22:11;;;;;;;1.90;1.58;;;28.20;47.20;;;;;;4935186;28;20039;-76
2023/09/10 13:24:37;;;;;;;4.05;1.75;;;28.10;46.90;;;;;;4949173;28;20140;-76
2023/09/10 13:27:11;;;;;;;4.65;2.05;;;28.30;46.50;;;;;;4949406;28;20448;-74
2023/09/10 13:32:54;;;;;;;3.88;1.83;;;28.20;46.40;;;;;;4969630;28;20043;-77